Time;durP1;ratioP1;P1;durP2;ratioP2;P2;SDS_P1;SDS_P2;PMS_P1;PMS_P2;Temp;Humidity;BMP_temperature;BMP_pressure;BME280_temperature;BME280_humidity;BME280_pressure;Samples;Min_cycle;Max_cycle;Signal;HPM_P1;HPM_P2
2023/09/25 00:01:10;;;;;;;7.10;3.22;;;;;;;;;;5073544;28;20070;-69
2023/09/25 00:03:35;;;;;;;5.10;3.22;;;;;;;;;;5073221;28;20462;-70
2023/09/25 00:06:00;;;;;;;6.47;3.63;;;;;;;;;;5077944;28;20028;-68
2023/09/25 00:08:26;;;;;;;6.60;3.35;;;;;;;;;;5090661;28;20040;-69
2023/09/25 00:10:52;;;;;;;5.85;3.20;;;;;;;;;;5089724;28;20098;-69
2023/09/25 00:13:17;;;;;;;5.25;3.25;;;;;;;;;;5091253;28;20032;-69
2023/09/25 00:15:44;;;;;;;6.57;3.30;;;;;;;;;;5091447;28;20487;-68
2023/09/25 00:18:09;;;;;;;6.97;3.08;;;;;;;;;;5078571;28;20032;-68
2023/09/25 00:20:34;;;;;;;5.80;2.60;;;;;;;;;;5092328;28;20031;-69
2023/09/25 00:23:00;;;;;;;4.78;3.15;;;;;;;;;;5091014;28;20050;-69
2023/09/25 00:25:28;;;;;;;5.03;2.92;;;;;;;;;;5072452;28;20041;-68
2023/09/25 00:27:53;;;;;;;4.65;2.90;;;;;;;;;;5072403;28;20034;-69
2023/09/25 00:30:18;;;;;;;5.95;3.20;;;;;;;;;;5072736;28;20029;-68
2023/09/25 00:32:44;;;;;;;5.72;3.40;;;;;;;;;;5072938;28;20056;-68
2023/09/25 00:35:10;;;;;;;6.05;3.25;;;;;;;;;;5084355;28;20495;-68
2023/09/25 00:37:38;;;;;;;4.13;2.80;;;;;;;;;;5084142;28;20039;-69
2023/09/25 00:40:14;;;;;;;8.00;3.22;;;;;;;;;;5075461;28;20028;-68
2023/09/25 00:42:45;;;;;;;5.43;2.92;;;;;;;;;;5081713;28;20031;-68
2023/09/25 00:45:11;;;;;;;4.95;3.05;;;;;;;;;;5076809;28;20021;-68
2023/09/25 00:47:37;;;;;;;6.68;2.95;;;;;;;;;;5081229;28;20027;-68
2023/09/25 00:50:05;;;;;;;4.57;3.15;;;;;;;;;;5083095;28;20024;-69
2023/09/25 00:52:34;;;;;;;5.60;3.42;;;;;;;;;;5091618;28;20024;-69
2023/09/25 00:55:00;;;;;;;5.55;3.40;;;;;;;;;;5091427;28;20024;-69
2023/09/25 00:57:25;;;;;;;5.22;3.08;;;;;;;;;;5090544;28;20077;-68
2023/09/25 00:59:51;;;;;;;6.00;3.33;;;;;;;;;;5090929;28;20022;-68
2023/09/25 01:02:17;;;;;;;5.28;3.33;;;;;;;;;;5089490;28;20517;-68
2023/09/25 01:04:43;;;;;;;5.60;3.10;;;;;;;;;;5089793;28;20019;-69
2023/09/25 01:07:08;;;;;;;4.18;2.92;;;;;;;;;;5089389;28;20035;-68
2023/09/25 01:09:33;;;;;;;5.45;3.25;;;;;;;;;;5090362;28;20024;-67
2023/09/25 01:11:58;;;;;;;5.10;3.17;;;;;;;;;;5090053;28;20085;-67
2023/09/25 01:14:24;;;;;;;5.63;3.45;;;;;;;;;;5090370;28;20051;-68
2023/09/25 01:16:50;;;;;;;5.95;3.60;;;;;;;;;;5088387;28;20046;-68
2023/09/25 01:19:16;;;;;;;8.25;3.38;;;;;;;;;;5072005;28;20135;-68
2023/09/25 01:21:47;;;;;;;6.22;2.92;;;;;;;;;;5077236;28;20051;-68
2023/09/25 01:24:12;;;;;;;5.28;2.70;;;;;;;;;;5079240;28;20028;-67
2023/09/25 01:26:38;;;;;;;4.65;3.03;;;;;;;;;;5082550;28;20110;-68
2023/09/25 01:29:03;;;;;;;5.88;3.03;;;;;;;;;;5087625;28;20043;-68
2023/09/25 01:31:28;;;;;;;5.53;3.00;;;;;;;;;;5078167;28;20044;-68
2023/09/25 01:33:53;;;;;;;6.05;2.92;;;;;;;;;;5078935;28;20074;-68
2023/09/25 01:36:19;;;;;;;4.93;2.92;;;;;;;;;;5081781;28;20036;-69
2023/09/25 01:38:46;;;;;;;6.35;2.70;;;;;;;;;;5080383;28;20090;-69
2023/09/25 01:41:11;;;;;;;8.23;2.95;;;;;;;;;;5080507;28;20103;-69
2023/09/25 01:43:37;;;;;;;5.10;3.13;;;;;;;;;;5079577;28;20242;-69
2023/09/25 01:46:02;;;;;;;5.55;2.75;;;;;;;;;;5080890;28;20070;-69
2023/09/25 01:48:28;;;;;;;4.32;2.63;;;;;;;;;;5088122;28;20107;-69
2023/09/25 01:50:54;;;;;;;5.03;2.70;;;;;;;;;;5094861;28;20129;-69
2023/09/25 01:53:19;;;;;;;6.88;2.83;;;;;;;;;;5085616;28;20034;-69
2023/09/25 01:55:44;;;;;;;4.43;2.67;;;;;;;;;;5084663;28;20040;-69
2023/09/25 01:58:10;;;;;;;7.43;3.45;;;;;;;;;;5079404;28;20025;-70
2023/09/25 02:00:35;;;;;;;6.90;3.40;;;;;;;;;;5095209;28;20039;-69
2023/09/25 02:03:00;;;;;;;5.70;3.78;;;;;;;;;;5079640;28;20069;-70
2023/09/25 02:05:26;;;;;;;7.82;3.88;;;;;;;;;;5077794;28;20379;-70
2023/09/25 02:07:51;;;;;;;9.55;4.22;;;;;;;;;;5091101;28;20181;-69
2023/09/25 02:10:16;;;;;;;8.15;4.88;;;;;;;;;;5077988;28;20056;-69
2023/09/25 02:12:42;;;;;;;7.13;5.00;;;;;;;;;;5078256;28;20024;-68
2023/09/25 02:15:08;;;;;;;6.90;5.07;;;;;;;;;;5089933;28;20032;-68
2023/09/25 02:17:33;;;;;;;8.18;5.55;;;;;;;;;;5097818;28;20411;-68
2023/09/25 02:20:20;;;;;;;8.05;4.90;;;;;;;;;;5096453;28;20459;-68
2023/09/25 02:22:46;;;;;;;6.43;4.60;;;;;;;;;;5096223;28;20500;-68
2023/09/25 02:25:12;;;;;;;8.13;4.72;;;;;;;;;;5089946;28;20494;-68
2023/09/25 02:27:38;;;;;;;8.55;4.45;;;;;;;;;;5070455;28;20028;-68
2023/09/25 02:30:07;;;;;;;7.15;4.75;;;;;;;;;;5094838;28;20024;-68
2023/09/25 02:32:32;;;;;;;7.82;5.13;;;;;;;;;;5093529;28;20036;-69
2023/09/25 02:34:57;;;;;;;7.18;4.80;;;;;;;;;;5091613;28;20394;-68
2023/09/25 02:37:22;;;;;;;6.00;4.30;;;;;;;;;;5092166;28;20058;-68
2023/09/25 02:39:48;;;;;;;7.43;4.63;;;;;;;;;;5087134;28;20425;-68
2023/09/25 02:42:13;;;;;;;7.70;4.90;;;;;;;;;;5085439;28;20093;-68
2023/09/25 02:44:38;;;;;;;8.32;5.32;;;;;;;;;;5091196;28;20030;-69
2023/09/25 02:47:04;;;;;;;8.30;4.75;;;;;;;;;;5091315;28;20016;-69
2023/09/25 02:49:29;;;;;;;9.13;5.65;;;;;;;;;;5087933;28;20429;-70
2023/09/25 02:51:54;;;;;;;9.60;4.93;;;;;;;;;;5073683;28;20050;-70
2023/09/25 02:54:19;;;;;;;8.30;4.90;;;;;;;;;;5089452;28;20031;-69
2023/09/25 02:56:46;;;;;;;7.70;4.72;;;;;;;;;;5089140;28;20506;-69
2023/09/25 02:59:11;;;;;;;6.45;4.32;;;;;;;;;;5083934;28;20032;-69
2023/09/25 03:01:36;;;;;;;7.15;4.28;;;;;;;;;;5081446;28;20031;-67
2023/09/25 03:04:02;;;;;;;6.68;4.30;;;;;;;;;;5090520;28;20028;-68
2023/09/25 03:06:27;;;;;;;8.35;5.05;;;;;;;;;;5078514;28;20032;-69
2023/09/25 03:08:53;;;;;;;6.47;4.72;;;;;;;;;;5092119;28;20024;-69
2023/09/25 03:11:18;;;;;;;6.88;4.10;;;;;;;;;;5081084;28;20027;-69
2023/09/25 03:13:43;;;;;;;6.85;4.07;;;;;;;;;;5081717;28;20095;-69
2023/09/25 03:16:12;;;;;;;7.40;4.20;;;;;;;;;;5082597;28;20406;-68
2023/09/25 03:18:38;;;;;;;6.20;4.38;;;;;;;;;;5087230;28;20020;-67
2023/09/25 03:21:06;;;;;;;7.20;4.70;;;;;;;;;;5089006;28;20015;-68
2023/09/25 03:23:33;;;;;;;6.75;3.90;;;;;;;;;;5085641;28;20016;-67
2023/09/25 03:25:59;;;;;;;7.80;4.50;;;;;;;;;;5082417;28;20078;-68
2023/09/25 03:28:24;;;;;;;8.48;4.20;;;;;;;;;;5091506;28;20024;-67
2023/09/25 03:30:49;;;;;;;6.20;4.50;;;;;;;;;;5093313;28;20386;-68
2023/09/25 03:33:15;;;;;;;9.60;3.83;;;;;;;;;;5092768;28;20032;-68
2023/09/25 03:35:40;;;;;;;8.13;4.50;;;;;;;;;;5092458;28;20036;-68
2023/09/25 03:38:05;;;;;;;7.22;4.30;;;;;;;;;;5096164;28;20056;-68
2023/09/25 03:40:30;;;;;;;5.40;3.97;;;;;;;;;;5092874;28;20020;-68
2023/09/25 03:42:56;;;;;;;5.75;3.70;;;;;;;;;;5087104;28;20040;-68
2023/09/25 03:45:21;;;;;;;6.18;3.72;;;;;;;;;;5078786;28;20039;-69
2023/09/25 03:47:48;;;;;;;7.53;4.47;;;;;;;;;;5081126;28;20012;-68
2023/09/25 03:50:13;;;;;;;5.90;3.67;;;;;;;;;;5079187;28;20498;-68
2023/09/25 03:52:39;;;;;;;7.18;3.83;;;;;;;;;;5084295;28;20024;-67
2023/09/25 03:55:04;;;;;;;6.82;4.22;;;;;;;;;;5086025;28;20108;-66
2023/09/25 03:57:29;;;;;;;7.05;3.55;;;;;;;;;;5086814;28;20021;-67
2023/09/25 03:59:55;;;;;;;6.95;3.58;;;;;;;;;;5087002;28;20120;-67
2023/09/25 04:02:20;;;;;;;9.68;3.33;;;;;;;;;;5088863;28;20379;-68
2023/09/25 04:04:45;;;;;;;7.95;3.60;;;;;;;;;;5084826;28;20032;-68
2023/09/25 04:07:10;;;;;;;5.68;3.25;;;;;;;;;;5084470;28;20093;-69
2023/09/25 04:09:36;;;;;;;5.72;3.53;;;;;;;;;;5091852;28;20024;-68
2023/09/25 04:12:01;;;;;;;5.20;3.00;;;;;;;;;;5088175;28;20062;-67
2023/09/25 04:14:28;;;;;;;5.53;3.33;;;;;;;;;;5086197;28;20519;-68
2023/09/25 04:16:54;;;;;;;5.65;3.50;;;;;;;;;;5084944;28;20024;-68
2023/09/25 04:19:21;;;;;;;6.78;3.55;;;;;;;;;;5084866;28;20103;-67
2023/09/25 04:21:47;;;;;;;4.47;2.78;;;;;;;;;;5075076;28;20031;-68
2023/09/25 04:24:13;;;;;;;7.88;3.58;;;;;;;;;;5086880;28;20103;-68
2023/09/25 04:26:41;;;;;;;5.47;3.15;;;;;;;;;;5082890;28;20115;-68
2023/09/25 04:29:14;;;;;;;5.15;2.63;;;;;;;;;;5087040;28;20031;-68
2023/09/25 04:31:39;;;;;;;4.70;2.70;;;;;;;;;;5091666;28;20024;-68
2023/09/25 04:34:04;;;;;;;4.90;2.83;;;;;;;;;;5073213;28;20036;-68
2023/09/25 04:36:30;;;;;;;6.75;3.00;;;;;;;;;;5083986;28;20039;-68
2023/09/25 04:38:55;;;;;;;6.18;2.88;;;;;;;;;;5074876;28;20111;-67
2023/09/25 04:41:21;;;;;;;6.30;3.30;;;;;;;;;;5083656;28;20104;-69
2023/09/25 04:43:47;;;;;;;7.00;3.55;;;;;;;;;;5081175;28;20106;-70
2023/09/25 04:46:12;;;;;;;5.28;3.22;;;;;;;;;;5078334;28;20028;-70
2023/09/25 04:48:37;;;;;;;4.10;2.80;;;;;;;;;;5079907;28;20036;-69
2023/09/25 04:51:03;;;;;;;8.10;3.42;;;;;;;;;;5073203;28;20418;-68
2023/09/25 04:53:28;;;;;;;6.82;2.88;;;;;;;;;;5078638;28;20103;-70
2023/09/25 04:55:54;;;;;;;6.03;3.38;;;;;;;;;;5077024;28;20434;-68
2023/09/25 04:58:19;;;;;;;4.47;2.47;;;;;;;;;;5088529;28;20062;-68
2023/09/25 05:00:44;;;;;;;4.78;2.90;;;;;;;;;;5086870;28;20154;-68
2023/09/25 05:03:09;;;;;;;6.13;3.00;;;;;;;;;;5083626;28;20356;-69
2023/09/25 05:05:35;;;;;;;6.15;2.97;;;;;;;;;;5074844;28;20035;-69
2023/09/25 05:08:00;;;;;;;4.90;3.00;;;;;;;;;;5082874;28;20024;-69
2023/09/25 05:10:27;;;;;;;6.80;2.95;;;;;;;;;;5066647;28;20085;-69
2023/09/25 05:12:52;;;;;;;8.05;2.90;;;;;;;;;;5039849;28;20071;-69
2023/09/25 05:15:18;;;;;;;7.68;3.17;;;;;;;;;;5048391;28;20036;-69
2023/09/25 05:17:44;;;;;;;5.47;3.28;;;;;;;;;;5036275;28;20020;-69
2023/09/25 05:20:11;;;;;;;8.90;3.03;;;;;;;;;;5043532;28;20029;-69
2023/09/25 05:22:40;;;;;;;4.68;2.85;;;;;;;;;;5050409;28;20073;-69
2023/09/25 05:25:07;;;;;;;8.88;2.90;;;;;;;;;;5050778;28;20028;-69
2023/09/25 05:27:33;;;;;;;6.47;3.22;;;;;;;;;;5047046;28;20115;-69
2023/09/25 05:29:58;;;;;;;5.68;3.25;;;;;;;;;;5037612;28;20043;-68
2023/09/25 05:32:23;;;;;;;7.00;3.08;;;;;;;;;;5046849;28;20031;-68
2023/09/25 05:34:49;;;;;;;5.65;2.85;;;;;;;;;;5045397;28;20020;-68
2023/09/25 05:37:14;;;;;;;5.68;2.80;;;;;;;;;;5048598;28;20403;-68
2023/09/25 05:39:40;;;;;;;5.80;3.42;;;;;;;;;;5046645;28;20059;-67
2023/09/25 05:42:05;;;;;;;5.28;2.97;;;;;;;;;;5043403;28;20882;-68
2023/09/25 05:44:30;;;;;;;8.38;3.35;;;;;;;;;;5042518;28;20027;-68
2023/09/25 05:46:55;;;;;;;6.90;3.60;;;;;;;;;;5047259;28;20942;-68
2023/09/25 05:49:21;;;;;;;5.13;2.67;;;;;;;;;;5043585;28;20058;-68
2023/09/25 05:51:46;;;;;;;7.10;3.97;;;;;;;;;;5036184;28;20031;-68
2023/09/25 05:54:11;;;;;;;6.00;3.30;;;;;;;;;;5050295;28;20028;-68
2023/09/25 05:56:38;;;;;;;5.70;2.95;;;;;;;;;;5049736;28;20024;-68
2023/09/25 05:59:03;;;;;;;7.25;3.30;;;;;;;;;;5047965;28;21013;-68
2023/09/25 06:01:28;;;;;;;6.20;3.35;;;;;;;;;;5049273;28;20016;-68
2023/09/25 06:03:54;;;;;;;5.43;3.03;;;;;;;;;;5056018;28;20816;-68
2023/09/25 06:06:19;;;;;;;4.50;2.92;;;;;;;;;;5047166;28;20773;-68
2023/09/25 06:08:45;;;;;;;4.57;2.53;;;;;;;;;;5045706;28;20421;-68
2023/09/25 06:11:10;;;;;;;5.38;2.83;;;;;;;;;;5052488;28;20933;-68
2023/09/25 06:13:36;;;;;;;8.63;3.92;;;;;;;;;;5050282;28;20020;-68
2023/09/25 06:16:01;;;;;;;6.95;3.33;;;;;;;;;;5053822;28;20032;-68
2023/09/25 06:18:29;;;;;;;4.75;2.65;;;;;;;;;;5041363;28;20091;-68
2023/09/25 06:20:54;;;;;;;5.50;2.97;;;;;;;;;;5049037;28;20031;-68
2023/09/25 06:23:20;;;;;;;6.30;2.63;;;;;;;;;;5047799;28;20029;-68
2023/09/25 06:25:45;;;;;;;10.48;3.00;;;;;;;;;;5040906;28;20041;-69
2023/09/25 06:28:14;;;;;;;5.15;2.88;;;;;;;;;;5049338;28;20533;-68
2023/09/25 06:30:39;;;;;;;5.60;2.97;;;;;;;;;;5049716;28;20026;-68
2023/09/25 06:33:06;;;;;;;4.97;2.50;;;;;;;;;;5050893;28;20773;-68
2023/09/25 06:35:33;;;;;;;4.68;2.72;;;;;;;;;;5050533;28;20121;-68
2023/09/25 06:37:58;;;;;;;5.82;2.53;;;;;;;;;;5049431;28;20828;-68
2023/09/25 06:40:23;;;;;;;4.63;2.78;;;;;;;;;;5050141;28;20048;-68
2023/09/25 06:42:49;;;;;;;6.55;2.72;;;;;;;;;;5050386;28;20042;-68
2023/09/25 06:45:14;;;;;;;4.93;2.55;;;;;;;;;;5045876;28;20023;-68
2023/09/25 06:47:40;;;;;;;6.32;2.70;;;;;;;;;;5047211;28;20042;-68
2023/09/25 06:50:05;;;;;;;6.90;3.05;;;;;;;;;;5050756;28;20024;-68
2023/09/25 06:52:31;;;;;;;5.63;3.20;;;;;;;;;;5044799;28;20189;-69
2023/09/25 06:54:56;;;;;;;5.53;3.03;;;;;;;;;;5048688;28;20035;-69
2023/09/25 06:57:22;;;;;;;6.65;2.67;;;;;;;;;;5050033;28;20082;-69
2023/09/25 06:59:47;;;;;;;4.43;2.97;;;;;;;;;;5048826;28;20488;-69
2023/09/25 07:02:12;;;;;;;5.45;3.20;;;;;;;;;;5045958;28;20958;-68
2023/09/25 07:04:38;;;;;;;5.82;3.78;;;;;;;;;;5046893;28;20130;-69
2023/09/25 07:07:03;;;;;;;5.78;3.67;;;;;;;;;;5047800;28;20443;-69
2023/09/25 07:09:28;;;;;;;7.85;4.07;;;;;;;;;;5046944;28;20028;-69
2023/09/25 07:11:54;;;;;;;4.97;3.25;;;;;;;;;;5041105;28;20032;-68
2023/09/25 07:14:19;;;;;;;6.57;3.90;;;;;;;;;;5046352;28;20028;-68
2023/09/25 07:16:44;;;;;;;7.03;3.47;;;;;;;;;;5047958;28;20109;-68
2023/09/25 07:19:10;;;;;;;5.43;3.05;;;;;;;;;;5048353;28;20039;-68
2023/09/25 07:21:36;;;;;;;6.35;3.55;;;;;;;;;;5043986;28;20020;-68
2023/09/25 07:24:01;;;;;;;6.25;2.90;;;;;;;;;;5046532;28;20090;-68
2023/09/25 07:26:26;;;;;;;5.88;3.30;;;;;;;;;;5049236;28;20073;-68
2023/09/25 07:28:52;;;;;;;4.70;2.75;;;;;;;;;;5044410;28;20039;-68
2023/09/25 07:31:18;;;;;;;7.30;2.75;;;;;;;;;;5050770;28;20058;-67
2023/09/25 07:33:43;;;;;;;6.22;2.70;;;;;;;;;;5055510;28;20838;-67
2023/09/25 07:36:08;;;;;;;4.75;2.90;;;;;;;;;;5054006;28;20032;-69
2023/09/25 07:38:33;;;;;;;4.18;2.38;;;;;;;;;;5053316;28;20138;-69
2023/09/25 07:40:59;;;;;;;4.82;3.13;;;;;;;;;;5052863;28;20931;-68
2023/09/25 07:43:24;;;;;;;4.07;2.30;;;;;;;;;;5051784;28;20062;-69
2023/09/25 07:45:54;;;;;;;5.30;2.88;;;;;;;;;;5037651;28;20081;-67
2023/09/25 07:48:19;;;;;;;4.35;3.15;;;;;;;;;;5049366;28;20846;-69
2023/09/25 07:50:47;;;;;;;4.50;2.65;;;;;;;;;;5049679;28;20044;-69
2023/09/25 07:53:13;;;;;;;5.93;2.53;;;;;;;;;;5036537;28;20902;-69
2023/09/25 07:55:38;;;;;;;7.50;2.60;;;;;;;;;;5037421;28;20089;-69
2023/09/25 07:58:04;;;;;;;7.88;2.33;;;;;;;;;;5049201;28;20035;-69
2023/09/25 08:00:37;;;;;;;6.75;2.40;;;;;;;;;;5045022;28;20067;-69
2023/09/25 08:03:02;;;;;;;4.38;2.25;;;;;;;;;;5040740;28;20024;-69
2023/09/25 08:05:28;;;;;;;6.07;2.53;;;;;;;;;;5048570;28;20077;-69
2023/09/25 08:07:54;;;;;;;5.18;2.63;;;;;;;;;;5048611;28;20063;-69
2023/09/25 08:10:19;;;;;;;5.07;2.70;;;;;;;;;;5039243;28;20032;-69
2023/09/25 08:12:45;;;;;;;4.72;2.33;;;;;;;;;;5049624;28;20766;-69
2023/09/25 08:15:10;;;;;;;4.40;2.15;;;;;;;;;;5048892;28;20632;-69
2023/09/25 08:17:36;;;;;;;4.72;2.10;;;;;;;;;;5048263;28;20093;-69
2023/09/25 08:20:14;;;;;;;4.55;2.50;;;;;;;;;;5044538;28;20921;-69
2023/09/25 08:22:41;;;;;;;5.07;2.40;;;;;;;;;;5041965;28;20028;-69
2023/09/25 08:25:08;;;;;;;4.82;2.72;;;;;;;;;;5046876;28;20033;-69
2023/09/25 08:27:34;;;;;;;6.57;2.35;;;;;;;;;;5047830;28;20012;-68
2023/09/25 08:29:59;;;;;;;8.23;2.50;;;;;;;;;;5063796;28;20028;-69
2023/09/25 08:32:25;;;;;;;4.65;2.08;;;;;;;;;;5076029;28;20082;-69
2023/09/25 08:34:50;;;;;;;4.85;2.47;;;;;;;;;;5072865;28;20028;-69
2023/09/25 08:37:15;;;;;;;6.60;2.20;;;;;;;;;;5080571;28;20028;-69
2023/09/25 08:39:40;;;;;;;3.90;2.20;;;;;;;;;;5089752;28;20479;-69
2023/09/25 08:42:06;;;;;;;6.88;2.60;;;;;;;;;;5076729;28;20032;-69
2023/09/25 08:44:31;;;;;;;4.95;2.50;;;;;;;;;;5084424;28;20036;-69
2023/09/25 08:46:57;;;;;;;7.03;2.45;;;;;;;;;;5082407;28;20031;-68
2023/09/25 08:49:22;;;;;;;3.60;2.17;;;;;;;;;;5083285;28;20596;-69
2023/09/25 08:51:47;;;;;;;5.10;1.90;;;;;;;;;;5079819;28;20021;-68
2023/09/25 08:54:13;;;;;;;4.13;2.13;;;;;;;;;;5078380;28;20031;-68
2023/09/25 08:56:38;;;;;;;3.53;2.00;;;;;;;;;;5086688;28;20494;-69
2023/09/25 08:59:04;;;;;;;8.25;2.03;;;;;;;;;;5077796;28;20024;-68
2023/09/25 09:01:30;;;;;;;3.90;2.00;;;;;;;;;;5083280;28;20474;-68
2023/09/25 09:03:55;;;;;;;4.72;1.88;;;;;;;;;;5090100;28;20034;-68
2023/09/25 09:06:20;;;;;;;6.00;1.50;;;;;;;;;;5071699;28;20028;-68
2023/09/25 09:08:47;;;;;;;4.25;1.67;;;;;;;;;;5071853;28;20467;-68
2023/09/25 09:11:15;;;;;;;5.65;1.77;;;;;;;;;;5071525;28;20028;-67
2023/09/25 09:13:44;;;;;;;5.43;1.83;;;;;;;;;;5074028;28;20115;-68
2023/09/25 09:16:13;;;;;;;3.30;1.70;;;;;;;;;;5072583;28;20115;-68
2023/09/25 09:18:38;;;;;;;5.53;1.33;;;;;;;;;;5074640;28;20386;-68
2023/09/25 09:21:03;;;;;;;2.90;1.33;;;;;;;;;;5074341;28;20017;-68
2023/09/25 09:23:39;;;;;;;4.43;1.35;;;;;;;;;;5075950;28;20461;-69
2023/09/25 09:26:05;;;;;;;5.80;1.60;;;;;;;;;;5091062;28;20028;-69
2023/09/25 09:28:32;;;;;;;4.15;1.30;;;;;;;;;;5090645;28;20016;-68
2023/09/25 09:30:59;;;;;;;2.92;1.25;;;;;;;;;;5090965;28;20434;-69
2023/09/25 09:33:29;;;;;;;3.63;1.98;;;;;;;;;;5088920;28;20033;-68
2023/09/25 09:35:54;;;;;;;3.85;1.38;;;;;;;;;;5088297;28;20064;-68
2023/09/25 09:38:21;;;;;;;4.70;1.63;;;;;;;;;;5086020;28;20059;-68
2023/09/25 09:40:46;;;;;;;4.55;1.30;;;;;;;;;;5088779;28;20169;-68
2023/09/25 09:43:12;;;;;;;4.70;1.48;;;;;;;;;;5086521;28;20515;-68
2023/09/25 09:45:38;;;;;;;2.63;1.00;;;;;;;;;;5090218;28;20459;-69
2023/09/25 09:48:04;;;;;;;3.97;1.40;;;;;;;;;;5090363;28;20153;-68
2023/09/25 09:50:30;;;;;;;2.13;1.00;;;;;;;;;;5083443;28;20052;-68
2023/09/25 09:52:59;;;;;;;3.10;1.17;;;;;;;;;;5093114;28;20113;-69
2023/09/25 09:55:27;;;;;;;3.92;1.17;;;;;;;;;;5094711;28;20490;-68
2023/09/25 09:57:54;;;;;;;3.13;1.17;;;;;;;;;;5092855;28;20023;-69
2023/09/25 10:00:20;;;;;;;1.85;0.77;;;;;;;;;;5091444;28;20024;-69
2023/09/25 10:02:46;;;;;;;2.22;0.93;;;;;;;;;;5094278;28;20356;-68
2023/09/25 10:05:13;;;;;;;2.97;1.30;;;;;;;;;;5093491;28;20129;-68
2023/09/25 10:07:56;;;;;;;3.95;1.20;;;;;;;;;;5091852;28;20047;-68
2023/09/25 10:10:22;;;;;;;2.40;1.00;;;;;;;;;;5078496;28;20056;-70
2023/09/25 10:12:48;;;;;;;3.90;1.40;;;;;;;;;;5080502;28;20052;-68
2023/09/25 10:15:17;;;;;;;5.43;1.40;;;;;;;;;;5078629;28;20028;-68
2023/09/25 10:17:45;;;;;;;2.72;0.98;;;;;;;;;;5093852;28;20094;-68
2023/09/25 10:20:29;;;;;;;2.97;1.20;;;;;;;;;;5089963;28;20020;-68
2023/09/25 10:22:57;;;;;;;3.05;1.30;;;;;;;;;;5086882;28;20472;-68
2023/09/25 10:25:23;;;;;;;3.08;0.90;;;;;;;;;;5086695;28;20071;-68
2023/09/25 10:27:49;;;;;;;3.05;1.17;;;;;;;;;;5094108;28;20463;-68
2023/09/25 10:30:18;;;;;;;5.10;1.40;;;;;;;;;;5076490;28;20021;-68
2023/09/25 10:32:55;;;;;;;2.33;1.02;;;;;;;;;;5082033;28;20078;-68
2023/09/25 10:35:40;;;;;;;3.22;1.15;;;;;;;;;;5086220;28;20024;-68
2023/09/25 10:38:28;;;;;;;3.80;1.48;;;;;;;;;;5074180;28;20051;-68
2023/09/25 10:40:54;;;;;;;2.88;1.02;;;;;;;;;;5083303;28;20024;-68
2023/09/25 10:43:21;;;;;;;2.72;1.13;;;;;;;;;;5078035;28;20060;-68
2023/09/25 10:45:46;;;;;;;3.65;1.48;;;;;;;;;;5076861;28;20028;-68
2023/09/25 10:48:12;;;;;;;3.08;1.20;;;;;;;;;;5083811;28;20039;-68
2023/09/25 10:50:37;;;;;;;3.20;1.30;;;;;;;;;;5095146;28;20107;-68
2023/09/25 10:53:10;;;;;;;7.30;1.77;;;;;;;;;;5089199;28;20016;-69
2023/09/25 10:55:35;;;;;;;3.28;1.40;;;;;;;;;;5091974;28;20062;-68
2023/09/25 10:58:06;;;;;;;5.30;1.45;;;;;;;;;;5091593;28;20032;-68
2023/09/25 11:00:34;;;;;;;2.72;1.15;;;;;;;;;;5092734;28;20436;-68
2023/09/25 11:03:01;;;;;;;3.22;1.10;;;;;;;;;;5092844;28;20028;-68
2023/09/25 11:05:27;;;;;;;4.03;1.30;;;;;;;;;;5091751;28;20024;-68
2023/09/25 11:07:53;;;;;;;6.95;1.45;;;;;;;;;;5075270;28;20063;-69
2023/09/25 11:10:18;;;;;;;5.53;1.20;;;;;;;;;;5075582;28;20024;-68
2023/09/25 11:12:47;;;;;;;4.03;1.40;;;;;;;;;;5074441;28;20023;-68
2023/09/25 11:15:13;;;;;;;4.10;1.50;;;;;;;;;;5085694;28;20036;-68
2023/09/25 11:17:39;;;;;;;3.38;1.02;;;;;;;;;;5074123;28;20023;-68
2023/09/25 11:20:12;;;;;;;2.10;0.90;;;;;;;;;;5072988;28;20035;-68
2023/09/25 11:22:40;;;;;;;3.17;1.13;;;;;;;;;;5073674;28;20021;-69
2023/09/25 11:25:09;;;;;;;2.30;0.88;;;;;;;;;;5074381;28;20048;-69
2023/09/25 11:27:35;;;;;;;4.80;1.48;;;;;;;;;;5066935;28;20444;-68
2023/09/25 11:30:13;;;;;;;3.90;1.43;;;;;;;;;;5089165;28;20119;-69
2023/09/25 11:32:39;;;;;;;4.55;1.40;;;;;;;;;;5075831;28;20278;-68
2023/09/25 11:35:06;;;;;;;3.22;1.17;;;;;;;;;;5077729;28;20157;-69
2023/09/25 11:37:31;;;;;;;3.53;1.42;;;;;;;;;;5079401;28;20409;-69
2023/09/25 11:39:57;;;;;;;2.80;1.10;;;;;;;;;;5078909;28;20045;-69
2023/09/25 11:42:23;;;;;;;2.67;1.00;;;;;;;;;;5075973;28;20118;-69
2023/09/25 11:44:49;;;;;;;2.83;1.15;;;;;;;;;;5079035;28;20027;-69
2023/09/25 11:47:14;;;;;;;3.97;1.00;;;;;;;;;;5075228;28;20028;-68
2023/09/25 11:49:39;;;;;;;2.03;0.80;;;;;;;;;;5072431;28;20020;-69
2023/09/25 11:52:05;;;;;;;2.27;0.90;;;;;;;;;;5073625;28;20468;-68
2023/09/25 11:54:30;;;;;;;2.45;0.93;;;;;;;;;;5074226;28;20272;-69
2023/09/25 11:56:57;;;;;;;2.60;1.10;;;;;;;;;;5073749;28;20036;-68
2023/09/25 11:59:22;;;;;;;2.45;1.08;;;;;;;;;;5058643;28;20275;-68
2023/09/25 12:01:50;;;;;;;1.85;0.70;;;;;;;;;;5084827;28;20028;-68
2023/09/25 12:04:15;;;;;;;3.47;1.05;;;;;;;;;;5074517;28;20036;-68
2023/09/25 12:06:42;;;;;;;2.05;0.90;;;;;;;;;;5072391;28;20025;-69
2023/09/25 12:09:11;;;;;;;2.88;1.20;;;;;;;;;;5073514;28;20379;-69
2023/09/25 12:11:39;;;;;;;3.13;1.20;;;;;;;;;;5072631;28;20017;-69
2023/09/25 12:14:05;;;;;;;2.80;1.00;;;;;;;;;;5076728;28;20028;-67
2023/09/25 12:16:30;;;;;;;2.47;1.10;;;;;;;;;;5091799;28;20046;-67
2023/09/25 12:18:56;;;;;;;5.45;1.58;;;;;;;;;;5091085;28;20406;-69
2023/09/25 12:21:21;;;;;;;3.50;1.37;;;;;;;;;;5091430;28;20020;-69
2023/09/25 12:23:46;;;;;;;2.63;0.90;;;;;;;;;;5089298;28;20409;-67
2023/09/25 12:26:12;;;;;;;3.57;1.20;;;;;;;;;;5090818;28;20383;-67
2023/09/25 12:28:37;;;;;;;2.03;1.00;;;;;;;;;;5087075;28;20548;-68
2023/09/25 12:31:03;;;;;;;3.97;1.42;;;;;;;;;;5091403;28;20027;-67
2023/09/25 12:33:29;;;;;;;2.60;1.10;;;;;;;;;;5090000;28;20032;-67
2023/09/25 12:35:54;;;;;;;3.72;1.08;;;;;;;;;;5088303;28;20081;-67
2023/09/25 12:38:19;;;;;;;3.00;1.20;;;;;;;;;;5088021;28;20028;-67
2023/09/25 12:40:44;;;;;;;2.10;0.97;;;;;;;;;;5087796;28;20266;-67
2023/09/25 12:43:10;;;;;;;2.30;1.00;;;;;;;;;;5085749;28;20281;-67
2023/09/25 12:45:35;;;;;;;2.95;1.20;;;;;;;;;;5076439;28;20262;-67
2023/09/25 12:48:00;;;;;;;2.80;1.10;;;;;;;;;;5085499;28;20065;-68
2023/09/25 12:50:25;;;;;;;3.00;1.03;;;;;;;;;;5075199;28;20684;-68
2023/09/25 12:52:51;;;;;;;3.03;1.03;;;;;;;;;;5076820;28;20297;-67
2023/09/25 12:55:16;;;;;;;3.88;1.38;;;;;;;;;;5074291;28;20807;-73
2023/09/25 12:57:41;;;;;;;2.70;1.10;;;;;;;;;;5077094;28;20478;-66
2023/09/25 13:00:08;;;;;;;2.55;1.10;;;;;;;;;;5084260;28;20303;-67
2023/09/25 13:02:34;;;;;;;2.90;1.00;;;;;;;;;;5087243;28;20039;-68
2023/09/25 13:05:00;;;;;;;4.45;1.30;;;;;;;;;;5082905;28;20020;-67
2023/09/25 13:07:25;;;;;;;4.47;0.93;;;;;;;;;;5074528;28;20490;-69
2023/09/25 13:09:50;;;;;;;3.22;1.20;;;;;;;;;;5075829;28;20031;-68
2023/09/25 13:12:16;;;;;;;3.35;1.33;;;;;;;;;;5090253;28;20020;-67
2023/09/25 13:14:41;;;;;;;4.15;1.00;;;;;;;;;;5079714;28;20075;-67
2023/09/25 13:17:06;;;;;;;3.97;1.30;;;;;;;;;;5080617;28;20024;-67
2023/09/25 13:19:31;;;;;;;4.57;1.25;;;;;;;;;;5076849;28;20028;-69
2023/09/25 13:21:57;;;;;;;2.25;1.00;;;;;;;;;;5086004;28;20024;-69
2023/09/25 13:24:22;;;;;;;5.53;1.60;;;;;;;;;;5088666;28;20035;-68
2023/09/25 13:26:47;;;;;;;3.90;1.10;;;;;;;;;;5089934;28;20585;-68
2023/09/25 13:29:13;;;;;;;3.30;1.10;;;;;;;;;;5085580;28;20028;-69
2023/09/25 13:31:39;;;;;;;3.55;1.35;;;;;;;;;;5076962;28;20044;-69
2023/09/25 13:34:05;;;;;;;3.33;1.30;;;;;;;;;;5091301;28;20671;-69
2023/09/25 13:36:32;;;;;;;4.28;1.25;;;;;;;;;;5076435;28;20032;-69
2023/09/25 13:38:57;;;;;;;2.88;1.00;;;;;;;;;;5076522;28;20386;-69
2023/09/25 13:41:22;;;;;;;2.28;1.10;;;;;;;;;;5088643;28;20034;-69
2023/09/25 13:43:48;;;;;;;2.40;1.20;;;;;;;;;;5089805;28;20070;-69
2023/09/25 13:46:13;;;;;;;3.55;1.20;;;;;;;;;;5071679;28;20278;-69
2023/09/25 13:48:39;;;;;;;3.35;1.15;;;;;;;;;;5090024;28;20028;-68
2023/09/25 13:51:06;;;;;;;3.13;1.05;;;;;;;;;;5089941;28;20054;-69
2023/09/25 13:53:32;;;;;;;4.55;1.25;;;;;;;;;;5086252;28;20027;-69
2023/09/25 13:55:58;;;;;;;3.33;1.25;;;;;;;;;;5089458;28;20024;-68
2023/09/25 13:58:23;;;;;;;4.70;1.48;;;;;;;;;;5076761;28;20433;-68
2023/09/25 14:00:48;;;;;;;2.75;1.20;;;;;;;;;;5090040;28;20016;-68
2023/09/25 14:03:14;;;;;;;2.92;1.00;;;;;;;;;;5076667;28;20055;-68
2023/09/25 14:05:39;;;;;;;3.40;0.90;;;;;;;;;;5090390;28;20024;-69
2023/09/25 14:08:05;;;;;;;2.35;1.15;;;;;;;;;;5089314;28;20733;-68
2023/09/25 14:10:37;;;;;;;2.15;1.02;;;;;;;;;;5089428;28;20107;-69
2023/09/25 14:13:03;;;;;;;2.35;1.20;;;;;;;;;;5087440;28;20031;-69
2023/09/25 14:15:29;;;;;;;3.33;1.10;;;;;;;;;;5086731;28;20040;-68
2023/09/25 14:17:54;;;;;;;3.33;1.63;;;;;;;;;;5089243;28;20017;-69
2023/09/25 14:20:19;;;;;;;4.10;1.53;;;;;;;;;;5083601;28;20360;-69
2023/09/25 14:22:44;;;;;;;4.53;1.43;;;;;;;;;;5078060;28;20356;-69
2023/09/25 14:25:10;;;;;;;4.00;1.60;;;;;;;;;;5083074;28;20274;-69
2023/09/25 14:27:35;;;;;;;3.33;1.15;;;;;;;;;;5078382;28;20271;-68
2023/09/25 14:30:00;;;;;;;3.60;1.27;;;;;;;;;;5086643;28;20020;-68
2023/09/25 14:32:26;;;;;;;3.13;1.25;;;;;;;;;;5081753;28;20020;-69
2023/09/25 14:34:51;;;;;;;3.55;1.20;;;;;;;;;;5086056;28;20046;-68
2023/09/25 14:37:16;;;;;;;4.10;1.38;;;;;;;;;;5088155;28;20036;-68